createdAt,value
2017-10-12T00:03:02.016Z,11.80
2017-10-12T00:08:05.205Z,12.00
2017-10-12T00:13:08.415Z,12.10
2017-10-12T00:18:11.601Z,12.10
2017-10-12T00:23:15.590Z,11.70
2017-10-12T00:28:18.782Z,11.70
2017-10-12T00:33:21.975Z,11.60
2017-10-12T00:38:25.155Z,11.60
2017-10-12T00:43:29.126Z,11.50
2017-10-12T00:48:32.312Z,11.50
2017-10-12T00:53:35.526Z,11.50
2017-10-12T00:58:38.763Z,11.40
2017-10-12T01:03:41.962Z,11.20
2017-10-12T01:08:45.173Z,11.20
2017-10-12T01:13:48.541Z,11.20
2017-10-12T01:18:51.718Z,11.20
2017-10-12T01:23:55.686Z,11.50
2017-10-12T01:28:58.865Z,11.40
2017-10-12T01:34:02.054Z,11.50
2017-10-12T01:39:06.002Z,11.60
2017-10-12T01:44:09.185Z,11.60
2017-10-12T01:49:14.053Z,11.60
2017-10-12T01:54:17.271Z,11.60
2017-10-12T01:59:20.434Z,11.50
2017-10-12T02:04:24.218Z,11.40
2017-10-12T02:09:27.387Z,11.30
2017-10-12T02:14:31.323Z,11.10
2017-10-12T02:19:34.613Z,11.10
2017-10-12T02:24:38.553Z,11.40
2017-10-12T02:29:41.740Z,11.30
2017-10-12T02:34:45.718Z,11.40
2017-10-12T02:39:48.928Z,11.30
2017-10-12T02:44:52.124Z,11.30
2017-10-12T02:49:55.284Z,11.10
2017-10-12T02:54:59.274Z,10.90
2017-10-12T03:00:02.463Z,10.90
2017-10-12T03:05:05.678Z,10.90
2017-10-12T03:10:08.850Z,11.00
2017-10-12T03:15:12.033Z,11.10
2017-10-12T03:20:15.998Z,11.20
2017-10-12T03:25:19.170Z,11.20
2017-10-12T03:30:23.149Z,11.10
2017-10-12T03:35:26.340Z,11.10
2017-10-12T03:40:29.506Z,11.10
2017-10-12T03:45:33.802Z,11.20
2017-10-12T03:50:36.974Z,11.20
2017-10-12T03:55:40.178Z,11.30
2017-10-12T04:00:44.154Z,11.30
2017-10-12T04:05:47.375Z,11.30
2017-10-12T04:10:51.403Z,11.50
2017-10-12T04:15:55.393Z,11.40
2017-10-12T04:20:58.622Z,11.50
2017-10-12T04:26:02.577Z,11.20
2017-10-12T04:31:05.782Z,11.20
2017-10-12T04:36:08.977Z,11.10
2017-10-12T04:41:12.165Z,11.10
2017-10-12T04:46:16.537Z,11.10
2017-10-12T04:51:19.742Z,11.10
2017-10-12T04:56:22.930Z,11.00
2017-10-12T05:01:26.137Z,10.90
2017-10-12T05:06:29.341Z,10.90
2017-10-12T05:11:33.336Z,10.90
2017-10-12T05:16:36.833Z,10.90
2017-10-12T05:21:40.011Z,10.90
2017-10-12T05:26:43.217Z,11.00
2017-10-12T05:31:46.421Z,11.00
2017-10-12T05:36:49.601Z,11.10
2017-10-12T05:41:53.569Z,11.20
2017-10-12T05:46:56.759Z,11.20
2017-10-12T05:51:59.943Z,11.30
2017-10-12T05:57:03.140Z,11.30
2017-10-12T06:02:07.103Z,11.30
2017-10-12T06:07:10.282Z,11.30
2017-10-12T06:12:13.492Z,11.30
2017-10-12T06:17:16.710Z,11.50
2017-10-12T06:22:19.946Z,11.60
2017-10-12T06:27:23.161Z,11.80
2017-10-12T06:32:26.373Z,11.80
2017-10-12T06:37:29.602Z,11.70
2017-10-12T06:42:33.598Z,12.10
2017-10-12T06:47:36.786Z,12.00
2017-10-12T06:52:39.978Z,12.30
2017-10-12T06:57:43.322Z,12.40
2017-10-12T07:02:46.675Z,12.40
2017-10-12T07:07:49.950Z,12.80
2017-10-12T07:12:53.174Z,14.40
2017-10-12T07:17:57.139Z,14.40
2017-10-12T07:23:00.419Z,14.40
2017-10-12T07:28:04.398Z,15.40
2017-10-12T07:33:07.610Z,15.40
2017-10-12T07:38:10.802Z,15.50
2017-10-12T07:43:14.019Z,15.90
2017-10-12T07:48:17.214Z,16.50
2017-10-12T07:53:20.462Z,17.30
2017-10-12T07:58:23.821Z,16.90
2017-10-12T08:03:27.021Z,17.30
2017-10-12T08:08:30.219Z,17.80
2017-10-12T08:13:33.403Z,17.20
2017-10-12T08:18:37.364Z,17.30
2017-10-12T08:23:40.558Z,17.30
2017-10-12T08:28:43.774Z,17.80
2017-10-12T08:33:46.960Z,17.90
2017-10-12T08:38:50.145Z,17.80
2017-10-12T08:43:54.114Z,17.70
2017-10-12T08:48:57.297Z,17.80
2017-10-12T08:54:00.494Z,17.80
2017-10-12T08:59:03.698Z,17.80
2017-10-12T09:04:07.650Z,17.70
2017-10-12T09:09:10.857Z,17.70
2017-10-12T09:14:15.956Z,18.00
2017-10-12T09:19:19.254Z,18.10
2017-10-12T09:24:22.454Z,18.20
2017-10-12T09:29:25.629Z,18.00
2017-10-12T09:34:28.798Z,17.80
2017-10-12T09:39:36.870Z,17.40
2017-10-12T09:44:42.201Z,17.40
2017-10-12T09:49:47.160Z,17.90
2017-10-12T09:54:50.341Z,17.90
2017-10-12T09:59:54.616Z,17.20
2017-10-12T10:04:57.801Z,17.40
2017-10-12T10:10:00.991Z,17.80
2017-10-12T10:15:04.190Z,18.20
2017-10-12T10:20:07.418Z,19.00
2017-10-12T10:25:10.592Z,19.20
2017-10-12T10:30:14.564Z,18.70
2017-10-12T10:35:17.741Z,18.70
2017-10-12T10:40:20.938Z,18.50
2017-10-12T10:45:24.132Z,18.60
2017-10-12T10:50:28.100Z,19.00
2017-10-12T10:55:31.402Z,19.00
2017-10-12T11:00:34.603Z,19.10
2017-10-12T11:05:37.864Z,19.20
2017-10-12T11:10:41.069Z,19.40
2017-10-12T11:15:45.002Z,19.50
2017-10-12T11:20:48.165Z,19.50
2017-10-12T11:25:51.351Z,19.30
2017-10-12T11:30:54.571Z,19.40
2017-10-12T11:35:57.785Z,19.50
2017-10-12T11:41:00.970Z,19.30
2017-10-12T11:46:04.158Z,19.30
2017-10-12T11:51:07.374Z,19.30
2017-10-12T11:56:10.579Z,19.50
2017-10-12T12:01:13.798Z,19.20
2017-10-12T12:06:16.998Z,19.60
2017-10-12T12:11:20.193Z,19.70
2017-10-12T12:16:23.427Z,19.50
2017-10-12T12:21:26.619Z,19.20
2017-10-12T12:26:29.807Z,19.20
2017-10-12T12:31:33.046Z,19.30
2017-10-12T12:36:36.239Z,19.20
2017-10-12T12:41:39.455Z,19.10
2017-10-12T12:46:42.649Z,19.40
2017-10-12T12:51:45.830Z,19.50
2017-10-12T12:56:49.028Z,19.60
2017-10-12T13:01:53.001Z,19.50
2017-10-12T13:06:56.252Z,19.50
2017-10-12T13:12:00.221Z,19.30
2017-10-12T13:17:03.393Z,19.30
2017-10-12T13:22:07.478Z,19.20
2017-10-12T13:27:10.676Z,19.30
2017-10-12T13:32:13.935Z,19.40
2017-10-12T13:37:17.901Z,19.20
2017-10-12T13:42:21.094Z,19.20
2017-10-12T13:47:24.275Z,19.40
2017-10-12T13:52:27.490Z,19.40
2017-10-12T13:57:31.482Z,19.10
2017-10-12T14:02:34.662Z,19.20
2017-10-12T14:07:37.872Z,19.10
2017-10-12T14:12:41.153Z,19.10
2017-10-12T14:17:44.353Z,18.90
2017-10-12T14:22:47.667Z,18.90
2017-10-12T14:27:50.840Z,19.10
2017-10-12T14:32:54.810Z,19.10
2017-10-12T14:37:58.004Z,19.10
2017-10-12T14:43:01.195Z,18.90
2017-10-12T14:48:04.370Z,18.90
2017-10-12T14:53:08.329Z,18.70
2017-10-12T14:58:11.551Z,18.70
2017-10-12T15:03:14.705Z,18.60
2017-10-12T15:08:18.679Z,18.50
2017-10-12T15:13:21.880Z,18.60
2017-10-12T15:18:25.130Z,18.50
2017-10-12T15:23:28.317Z,18.50
2017-10-12T15:28:31.564Z,18.50
2017-10-12T15:33:34.771Z,18.60
2017-10-12T15:38:38.829Z,18.40
2017-10-12T15:43:42.079Z,18.40
2017-10-12T15:48:45.277Z,18.30
2017-10-12T15:53:48.458Z,18.30
2017-10-12T15:58:51.693Z,18.10
2017-10-12T16:03:54.889Z,18.00
2017-10-12T16:08:58.130Z,17.90
2017-10-12T16:14:02.066Z,17.60
2017-10-12T16:19:05.267Z,17.60
2017-10-12T16:24:09.221Z,17.30
2017-10-12T16:29:12.426Z,17.30
2017-10-12T16:34:15.626Z,17.10
2017-10-12T16:39:18.828Z,16.90
2017-10-12T16:44:22.013Z,16.80
2017-10-12T16:49:26.100Z,16.60
2017-10-12T16:54:29.294Z,16.60
2017-10-12T16:59:32.497Z,16.60
2017-10-12T17:04:35.802Z,16.60
2017-10-12T17:09:40.128Z,16.50
2017-10-12T17:14:43.293Z,16.40
2017-10-12T17:19:47.237Z,16.20
2017-10-12T17:24:50.470Z,16.20
2017-10-12T17:29:53.713Z,16.10
2017-10-12T17:34:56.961Z,15.90
2017-10-12T17:40:00.182Z,15.80
2017-10-12T17:45:03.468Z,15.70
2017-10-12T17:50:06.672Z,15.50
2017-10-12T17:55:10.644Z,15.50
2017-10-12T18:00:14.222Z,15.50
2017-10-12T18:05:17.462Z,15.60
2017-10-12T18:10:24.736Z,15.40
2017-10-12T18:15:28.050Z,15.30
2017-10-12T18:20:31.275Z,15.10
2017-10-12T18:25:34.461Z,15.00
2017-10-12T18:30:37.659Z,14.90
2017-10-12T18:35:40.876Z,14.90
2017-10-12T18:40:44.082Z,14.70
2017-10-12T18:45:47.299Z,14.80
2017-10-12T18:50:51.427Z,14.50
2017-10-12T18:55:54.623Z,14.50
2017-10-12T19:00:57.939Z,14.50
2017-10-12T19:06:01.169Z,14.60
2017-10-12T19:11:04.373Z,14.50
2017-10-12T19:16:07.660Z,14.40
2017-10-12T19:21:10.849Z,14.40
2017-10-12T19:26:14.210Z,14.30
2017-10-12T19:31:17.509Z,14.00
2017-10-12T19:36:20.794Z,14.10
2017-10-12T19:41:25.402Z,14.00
2017-10-12T19:46:28.640Z,13.80
2017-10-12T19:51:31.884Z,13.70
2017-10-12T19:56:35.107Z,13.60
2017-10-12T20:01:38.374Z,13.50
2017-10-12T20:06:41.616Z,13.40
2017-10-12T20:11:44.868Z,13.30
2017-10-12T20:16:48.927Z,13.00
2017-10-12T20:21:52.144Z,13.00
2017-10-12T20:26:55.288Z,13.00
2017-10-12T20:31:58.547Z,13.00
2017-10-12T20:37:01.750Z,13.00
2017-10-12T20:47:08.171Z,12.90
2017-10-12T20:52:11.372Z,12.90
2017-10-12T20:57:15.322Z,12.90
2017-10-12T21:07:21.889Z,12.60
2017-10-12T21:12:25.222Z,12.60
2017-10-12T21:17:28.427Z,12.50
2017-10-12T21:22:32.090Z,12.50
2017-10-12T21:27:35.661Z,12.50
2017-10-12T21:32:38.865Z,12.40
2017-10-12T21:37:42.498Z,12.20
2017-10-12T21:42:45.706Z,12.00
2017-10-12T21:47:48.934Z,11.90
2017-10-12T21:52:53.050Z,11.90
2017-10-12T21:57:56.335Z,11.90
2017-10-12T22:02:59.861Z,11.80
2017-10-12T22:08:03.233Z,11.80
2017-10-12T22:13:06.410Z,11.90
2017-10-12T22:18:10.362Z,11.90
2017-10-12T22:23:13.573Z,11.90
2017-10-12T22:28:16.830Z,11.90
2017-10-12T22:33:22.122Z,12.00
2017-10-12T22:38:25.316Z,11.90
2017-10-12T22:43:28.521Z,11.80
2017-10-12T22:48:31.714Z,11.80
2017-10-12T22:53:36.430Z,11.40
2017-10-12T22:58:39.756Z,11.40
2017-10-12T23:03:42.963Z,11.50
2017-10-12T23:08:46.296Z,11.60
2017-10-12T23:13:50.270Z,11.50
2017-10-12T23:18:54.583Z,11.40
2017-10-12T23:23:59.105Z,11.20
2017-10-12T23:29:02.416Z,11.10
2017-10-12T23:34:05.622Z,11.20
2017-10-12T23:39:08.790Z,11.10
2017-10-12T23:44:12.746Z,11.20
2017-10-12T23:49:15.933Z,11.20
2017-10-12T23:54:19.898Z,11.40
2017-10-12T23:59:23.102Z,11.40
